Terminal Aerodrome Forecast
Issued by NWS

Home | Current Version | Previous Version | Text Only | Print | Product List | Glossary On
Versions: 1 2 3 4 5 6 7 8 9 10 11 12 13
000
FTUS41 KCAR 021731
TAFPQI
TAF
KPQI 021731Z 0218/0318 14009KT P6SM -RA OVC050
     FM022100 11006KT 5SM -RA OVC025
     FM030000 10005KT 4SM -RA OVC015
     FM030600 03004KT 3SM -RA OVC007
     FM030800 02004KT 3SM -DZ BR OVC007
     FM031300 02004KT P6SM BKN015=

USA.gov is the U.S. government's official web portal to all federal, state and local government web resources and services.